createdAt,value
2017-08-22T00:01:03.230Z,6.90
2017-08-22T00:03:35.758Z,12.77
2017-08-22T00:06:02.143Z,8.10
2017-08-22T00:08:28.559Z,10.87
2017-08-22T00:10:54.982Z,10.10
2017-08-22T00:13:21.371Z,8.43
2017-08-22T00:15:47.751Z,7.90
2017-08-22T00:18:14.143Z,7.80
2017-08-22T00:20:45.120Z,10.30
2017-08-22T00:23:11.524Z,11.57
2017-08-22T00:25:37.907Z,10.77
2017-08-22T00:28:04.306Z,9.57
2017-08-22T00:30:30.719Z,9.73
2017-08-22T00:32:57.864Z,11.80
2017-08-22T00:35:25.027Z,9.27
2017-08-22T00:37:51.448Z,13.37
2017-08-22T00:40:18.679Z,13.30
2017-08-22T00:42:45.242Z,11.20
2017-08-22T00:45:12.428Z,8.60
2017-08-22T00:47:38.830Z,11.30
2017-08-22T00:50:05.278Z,17.43
2017-08-22T00:52:31.716Z,10.77
2017-08-22T00:54:59.579Z,10.00
2017-08-22T00:57:25.991Z,12.50
2017-08-22T00:59:52.416Z,11.80
2017-08-22T01:02:18.835Z,9.70
2017-08-22T01:04:45.235Z,10.40
2017-08-22T01:07:11.910Z,13.30
2017-08-22T01:09:38.359Z,10.20
2017-08-22T01:12:04.774Z,9.57
2017-08-22T01:14:31.205Z,9.60
2017-08-22T01:16:59.899Z,14.77
2017-08-22T01:19:26.365Z,14.37
2017-08-22T01:21:52.806Z,9.73
2017-08-22T01:24:19.222Z,11.60
2017-08-22T01:26:45.654Z,10.70
2017-08-22T01:29:12.166Z,11.03
2017-08-22T01:31:39.353Z,17.03
2017-08-22T01:34:05.783Z,11.20
2017-08-22T01:36:32.238Z,9.53
2017-08-22T01:38:58.690Z,10.70
2017-08-22T01:41:25.155Z,13.30
2017-08-22T01:43:59.139Z,13.90
2017-08-22T01:46:25.552Z,12.23
2017-08-22T01:48:51.971Z,9.37
2017-08-22T01:51:18.411Z,12.47
2017-08-22T01:53:44.814Z,12.43
2017-08-22T01:56:11.223Z,10.07
2017-08-22T01:58:37.615Z,13.23
2017-08-22T02:01:04.054Z,14.73
2017-08-22T02:03:30.499Z,12.13
2017-08-22T02:05:56.907Z,8.30
2017-08-22T02:08:23.312Z,13.40
2017-08-22T02:10:56.709Z,10.93
2017-08-22T02:13:23.382Z,17.17
2017-08-22T02:15:49.819Z,11.20
2017-08-22T02:18:16.238Z,11.27
2017-08-22T02:20:42.627Z,11.70
2017-08-22T02:23:09.018Z,13.47
2017-08-22T02:25:35.443Z,9.83
2017-08-22T02:28:01.890Z,13.63
2017-08-22T02:30:28.302Z,12.17
2017-08-22T02:32:54.710Z,10.43
2017-08-22T02:35:21.134Z,12.17
2017-08-22T02:37:47.518Z,13.60
2017-08-22T02:40:13.979Z,12.10
2017-08-22T02:42:40.422Z,10.73
2017-08-22T02:45:06.826Z,9.97
2017-08-22T02:47:33.336Z,12.23
2017-08-22T02:49:59.735Z,11.70
2017-08-22T02:52:26.142Z,12.60
2017-08-22T02:54:52.558Z,12.40
2017-08-22T02:57:18.991Z,11.30
2017-08-22T02:59:52.009Z,11.60
2017-08-22T03:02:20.106Z,12.60
2017-08-22T03:04:46.543Z,14.83
2017-08-22T03:07:12.945Z,12.33
2017-08-22T03:09:39.347Z,11.00
2017-08-22T03:12:05.750Z,12.60
2017-08-22T03:14:32.222Z,14.60
2017-08-22T03:16:58.627Z,16.20
2017-08-22T03:19:25.038Z,22.90
2017-08-22T03:21:51.457Z,15.23
2017-08-22T03:24:17.866Z,13.10
2017-08-22T03:26:47.053Z,22.83
2017-08-22T03:29:14.327Z,13.50
2017-08-22T03:31:40.746Z,10.53
2017-08-22T03:34:07.171Z,12.83
2017-08-22T03:36:33.550Z,10.93
2017-08-22T03:38:59.956Z,15.70
2017-08-22T03:41:26.358Z,9.63
2017-08-22T03:43:52.760Z,9.73
2017-08-22T03:46:19.158Z,11.93
2017-08-22T03:48:54.270Z,14.87
2017-08-22T03:51:20.871Z,15.73
2017-08-22T03:53:47.271Z,11.70
2017-08-22T03:56:13.675Z,12.67
2017-08-22T03:58:40.091Z,12.90
2017-08-22T04:01:06.495Z,15.40
2017-08-22T04:03:32.955Z,12.77
2017-08-22T04:05:59.370Z,12.67
2017-08-22T04:08:25.798Z,10.20
2017-08-22T04:10:52.262Z,10.83
2017-08-22T04:13:18.653Z,23.87
2017-08-22T04:15:53.810Z,17.53
2017-08-22T04:18:20.243Z,11.47
2017-08-22T04:20:46.643Z,16.17
2017-08-22T04:23:13.031Z,13.83
2017-08-22T04:25:39.449Z,13.63
2017-08-22T04:28:05.834Z,23.10
2017-08-22T04:30:32.250Z,12.40
2017-08-22T04:32:58.695Z,14.80
2017-08-22T04:35:25.121Z,14.67
2017-08-22T04:37:51.531Z,15.83
2017-08-22T04:40:17.926Z,18.90
2017-08-22T04:42:46.771Z,19.33
2017-08-22T04:45:14.202Z,14.53
2017-08-22T04:47:41.047Z,18.13
2017-08-22T04:50:07.466Z,18.00
2017-08-22T04:52:33.958Z,17.93
2017-08-22T04:55:00.348Z,17.07
2017-08-22T04:57:26.747Z,22.13
2017-08-22T04:59:53.165Z,29.83
2017-08-22T05:02:19.618Z,27.03
2017-08-22T05:04:48.858Z,19.97
2017-08-22T05:07:15.238Z,17.00
2017-08-22T05:09:41.642Z,21.10
2017-08-22T05:12:16.492Z,23.07
2017-08-22T05:14:42.959Z,22.30
2017-08-22T05:17:10.158Z,36.67
2017-08-22T05:19:36.702Z,12.87
2017-08-22T05:22:03.162Z,14.83
2017-08-22T05:24:29.625Z,16.10
2017-08-22T05:26:56.219Z,17.20
2017-08-22T05:29:22.670Z,15.00
2017-08-22T05:31:49.099Z,10.37
2017-08-22T05:34:15.612Z,15.87
2017-08-22T05:36:42.147Z,12.90
2017-08-22T05:39:08.650Z,20.60
2017-08-22T05:41:35.144Z,18.40
2017-08-22T05:44:01.648Z,17.87
2017-08-22T05:46:28.115Z,18.10
2017-08-22T05:48:54.585Z,14.13
2017-08-22T05:51:21.052Z,15.23
2017-08-22T05:53:47.524Z,15.83
2017-08-22T05:56:13.986Z,15.30
2017-08-22T05:58:40.479Z,27.30
2017-08-22T06:01:06.944Z,23.33
2017-08-22T06:03:33.445Z,21.50
2017-08-22T06:05:59.981Z,20.80
2017-08-22T06:08:26.459Z,19.83
2017-08-22T06:10:53.399Z,15.73
2017-08-22T06:13:19.927Z,14.30
2017-08-22T06:15:46.398Z,13.40
2017-08-22T06:18:12.882Z,19.10
2017-08-22T06:20:39.430Z,22.57
2017-08-22T06:23:05.893Z,24.93
2017-08-22T06:25:32.362Z,16.60
2017-08-22T06:27:58.829Z,15.80
2017-08-22T06:30:25.301Z,19.07
2017-08-22T06:32:51.769Z,14.97
2017-08-22T06:35:18.227Z,11.50
2017-08-22T06:37:44.713Z,11.23
2017-08-22T06:40:11.220Z,11.57
2017-08-22T06:42:37.703Z,15.70
2017-08-22T06:45:04.192Z,14.20
2017-08-22T06:47:30.653Z,9.60
2017-08-22T06:49:57.169Z,11.03
2017-08-22T06:52:23.658Z,10.93
2017-08-22T06:54:50.106Z,11.47
2017-08-22T06:57:16.587Z,11.80
2017-08-22T06:59:43.040Z,8.63
2017-08-22T07:02:09.490Z,13.90
2017-08-22T07:04:36.874Z,8.03
2017-08-22T07:07:03.335Z,11.90
2017-08-22T07:09:29.819Z,13.77
2017-08-22T07:11:57.003Z,11.93
2017-08-22T07:14:23.438Z,8.87
2017-08-22T07:16:49.912Z,13.33
2017-08-22T07:19:21.419Z,12.97
2017-08-22T07:21:47.911Z,11.27
2017-08-22T07:24:14.399Z,7.53
2017-08-22T07:26:40.868Z,12.10
2017-08-22T07:29:07.311Z,17.73
2017-08-22T07:31:33.766Z,11.87
2017-08-22T07:34:00.961Z,8.33
2017-08-22T07:36:32.496Z,8.67
2017-08-22T07:38:58.970Z,10.50
2017-08-22T07:41:25.458Z,9.27
2017-08-22T07:43:51.907Z,10.40
2017-08-22T07:46:18.395Z,9.80
2017-08-22T07:48:45.041Z,10.53
2017-08-22T07:51:11.582Z,10.67
2017-08-22T07:53:38.052Z,10.50
2017-08-22T07:56:04.503Z,12.53
2017-08-22T07:58:30.999Z,9.20
2017-08-22T08:00:57.476Z,7.63
2017-08-22T08:03:23.972Z,7.43
2017-08-22T08:05:50.406Z,9.70
2017-08-22T08:08:16.874Z,8.33
2017-08-22T08:10:43.318Z,14.13
2017-08-22T08:13:09.801Z,10.73
2017-08-22T08:15:36.275Z,9.60
2017-08-22T08:18:02.769Z,5.47
2017-08-22T08:20:29.253Z,5.33
2017-08-22T08:22:55.753Z,6.47
2017-08-22T08:25:22.576Z,4.17
2017-08-22T08:27:49.054Z,5.47
2017-08-22T08:30:15.585Z,4.27
2017-08-22T08:32:42.037Z,6.53
2017-08-22T08:35:08.496Z,15.73
2017-08-22T08:37:35.730Z,5.97
2017-08-22T08:40:02.209Z,2.50
2017-08-22T08:42:28.703Z,7.40
2017-08-22T08:44:55.158Z,4.10
2017-08-22T08:47:21.695Z,3.67
2017-08-22T08:49:48.249Z,4.60
2017-08-22T08:52:14.766Z,7.97
2017-08-22T08:54:41.245Z,7.70
2017-08-22T08:57:07.716Z,3.60
2017-08-22T08:59:34.194Z,5.80
2017-08-22T09:02:00.649Z,4.50
2017-08-22T09:04:27.115Z,8.40
2017-08-22T09:06:53.562Z,6.87
2017-08-22T09:09:20.026Z,10.17
2017-08-22T09:11:46.488Z,4.83
2017-08-22T09:14:12.938Z,4.10
2017-08-22T09:16:39.407Z,6.67
2017-08-22T09:19:05.900Z,10.43
2017-08-22T09:21:32.365Z,8.43
2017-08-22T09:23:58.805Z,7.13
2017-08-22T09:26:25.311Z,6.97
2017-08-22T09:28:51.794Z,6.43
2017-08-22T09:31:18.277Z,5.10
2017-08-22T09:33:44.737Z,4.63
2017-08-22T09:36:11.217Z,6.70
2017-08-22T09:38:37.676Z,5.83
2017-08-22T09:41:04.192Z,7.90
2017-08-22T09:43:30.651Z,7.93
2017-08-22T09:45:57.128Z,4.20
2017-08-22T09:48:23.598Z,4.00
2017-08-22T09:50:50.132Z,10.20
2017-08-22T09:53:16.630Z,5.37
2017-08-22T09:55:43.098Z,6.67
2017-08-22T09:58:09.555Z,3.97
2017-08-22T10:00:36.012Z,5.10
2017-08-22T10:03:02.472Z,9.33
2017-08-22T10:05:28.912Z,5.87
2017-08-22T10:07:55.360Z,6.50
2017-08-22T10:10:21.820Z,7.63
2017-08-22T10:12:48.291Z,3.50
2017-08-22T10:15:14.760Z,4.10
2017-08-22T10:17:41.202Z,5.73
2017-08-22T10:20:07.649Z,7.00
2017-08-22T10:22:34.119Z,5.40
2017-08-22T10:25:00.556Z,5.00
2017-08-22T10:27:27.001Z,4.77
2017-08-22T10:29:53.455Z,4.13
2017-08-22T10:32:19.940Z,6.60
2017-08-22T10:34:46.389Z,3.80
2017-08-22T10:37:12.873Z,6.37
2017-08-22T10:39:39.358Z,7.90
2017-08-22T10:42:05.824Z,6.07
2017-08-22T10:44:32.325Z,5.93
2017-08-22T10:46:58.823Z,4.33
2017-08-22T10:49:25.303Z,9.43
2017-08-22T10:51:51.792Z,5.10
2017-08-22T10:54:18.288Z,3.50
2017-08-22T10:56:44.727Z,5.40
2017-08-22T10:59:11.214Z,4.93
2017-08-22T11:01:37.692Z,3.67
2017-08-22T11:04:04.128Z,3.10
2017-08-22T11:06:30.964Z,9.53
2017-08-22T11:08:57.407Z,5.57
2017-08-22T11:11:23.886Z,7.00
2017-08-22T11:13:50.340Z,4.67
2017-08-22T11:16:16.788Z,5.70
2017-08-22T11:18:43.245Z,13.80
2017-08-22T11:21:09.698Z,5.20
2017-08-22T11:23:36.158Z,4.00
2017-08-22T11:26:02.613Z,5.10
2017-08-22T11:28:29.087Z,4.17
2017-08-22T11:30:55.602Z,3.87
2017-08-22T11:33:22.068Z,5.60
2017-08-22T11:35:48.549Z,2.90
2017-08-22T11:38:14.995Z,6.60
2017-08-22T11:40:41.449Z,4.37
2017-08-22T11:43:08.913Z,15.17
2017-08-22T11:45:35.369Z,4.50
2017-08-22T11:48:01.811Z,14.43
2017-08-22T11:50:28.261Z,4.77
2017-08-22T11:52:54.731Z,8.03
2017-08-22T11:55:21.173Z,5.90
2017-08-22T11:57:47.598Z,8.00
2017-08-22T12:00:14.161Z,4.43
2017-08-22T12:02:40.616Z,4.60
2017-08-22T12:05:07.060Z,10.23
2017-08-22T12:07:33.521Z,8.60
2017-08-22T12:10:00.878Z,3.77
2017-08-22T12:12:27.358Z,6.73
2017-08-22T12:14:53.814Z,5.03
2017-08-22T12:17:20.249Z,3.60
2017-08-22T12:19:46.749Z,5.00
2017-08-22T12:22:13.222Z,3.20
2017-08-22T12:24:39.672Z,7.47
2017-08-22T12:27:06.128Z,4.43
2017-08-22T12:29:32.593Z,5.63
2017-08-22T12:31:59.021Z,4.07
2017-08-22T12:34:25.453Z,7.30
2017-08-22T12:36:51.913Z,7.33
2017-08-22T12:39:18.379Z,12.40
2017-08-22T12:41:44.865Z,5.47
2017-08-22T12:44:11.321Z,5.43
2017-08-22T12:46:37.793Z,4.60
2017-08-22T12:49:04.308Z,4.90
2017-08-22T12:51:30.867Z,6.60
2017-08-22T12:53:57.353Z,2.93
2017-08-22T12:56:23.875Z,11.13
2017-08-22T12:58:50.369Z,4.50
2017-08-22T13:01:16.885Z,6.33
2017-08-22T13:03:43.404Z,6.33
2017-08-22T13:06:09.880Z,5.03
2017-08-22T13:08:36.337Z,2.70
2017-08-22T13:11:02.842Z,4.73
2017-08-22T13:13:34.373Z,3.23
2017-08-22T13:16:00.833Z,4.57
2017-08-22T13:18:27.262Z,8.67
2017-08-22T13:20:53.731Z,4.63
2017-08-22T13:23:20.204Z,3.03
2017-08-22T13:25:46.650Z,7.40
2017-08-22T13:28:18.223Z,7.20
2017-08-22T13:30:44.677Z,3.90
2017-08-22T13:33:11.130Z,6.17
2017-08-22T13:35:37.601Z,6.70
2017-08-22T13:38:04.056Z,6.07
2017-08-22T13:40:30.507Z,10.30
2017-08-22T13:42:56.986Z,7.47
2017-08-22T13:45:23.439Z,7.23
2017-08-22T13:47:49.892Z,3.87
2017-08-22T13:50:16.328Z,5.10
2017-08-22T13:52:42.843Z,8.40
2017-08-22T13:55:09.312Z,7.87
2017-08-22T13:57:35.783Z,5.40
2017-08-22T14:00:02.236Z,2.53
2017-08-22T14:02:28.743Z,4.00
2017-08-22T14:04:55.184Z,10.00
2017-08-22T14:07:21.640Z,4.70
2017-08-22T14:09:48.843Z,5.33
2017-08-22T14:12:15.280Z,5.40
2017-08-22T14:14:41.743Z,4.70
2017-08-22T14:17:08.221Z,3.83
2017-08-22T14:19:34.701Z,4.33
2017-08-22T14:22:01.159Z,5.40
2017-08-22T14:24:27.619Z,6.03
2017-08-22T14:26:54.046Z,3.67
2017-08-22T14:29:20.545Z,4.27
2017-08-22T14:31:46.999Z,3.80
2017-08-22T14:34:13.457Z,3.53
2017-08-22T14:36:39.897Z,10.73
2017-08-22T14:39:06.360Z,5.60
2017-08-22T14:41:32.827Z,3.60
2017-08-22T14:43:59.316Z,11.43
2017-08-22T14:46:25.774Z,6.27
2017-08-22T14:48:52.257Z,5.43
2017-08-22T14:51:18.720Z,4.77
2017-08-22T14:53:45.151Z,3.37
2017-08-22T14:56:11.624Z,5.17
2017-08-22T14:58:38.089Z,3.13
2017-08-22T15:01:04.600Z,3.50
2017-08-22T15:03:31.067Z,2.90
2017-08-22T15:05:57.524Z,6.90
2017-08-22T15:08:23.985Z,3.20
2017-08-22T15:10:50.433Z,8.03
2017-08-22T15:13:16.882Z,7.27
2017-08-22T15:15:44.084Z,5.23
2017-08-22T15:18:10.512Z,4.73
2017-08-22T15:20:36.979Z,4.10
2017-08-22T15:23:03.512Z,4.13
2017-08-22T15:25:29.961Z,5.60
2017-08-22T15:27:56.424Z,3.30
2017-08-22T15:30:22.854Z,4.83
2017-08-22T15:32:49.292Z,3.53
2017-08-22T15:35:15.743Z,3.70
2017-08-22T15:37:42.201Z,3.53
2017-08-22T15:40:08.702Z,4.80
2017-08-22T15:42:35.161Z,3.43
2017-08-22T15:45:01.615Z,11.80
2017-08-22T15:47:28.072Z,8.37
2017-08-22T15:49:54.523Z,3.00
2017-08-22T15:52:20.956Z,6.33
2017-08-22T15:54:47.416Z,6.00
2017-08-22T15:57:13.876Z,6.20
2017-08-22T15:59:40.356Z,3.60
2017-08-22T16:02:06.820Z,9.47
2017-08-22T16:04:33.276Z,4.97
2017-08-22T16:07:00.053Z,5.90
2017-08-22T16:09:26.693Z,3.63
2017-08-22T16:11:53.148Z,17.40
2017-08-22T16:14:19.618Z,9.53
2017-08-22T16:16:46.121Z,3.80
2017-08-22T16:19:12.575Z,7.23
2017-08-22T16:21:39.028Z,5.23
2017-08-22T16:24:05.511Z,3.80
2017-08-22T16:26:31.962Z,4.60
2017-08-22T16:28:58.404Z,4.37
2017-08-22T16:32:01.427Z,3.53
2017-08-22T16:34:27.871Z,8.23
2017-08-22T16:36:54.417Z,2.60
2017-08-22T16:39:20.852Z,4.60
2017-08-22T16:41:47.295Z,4.30
2017-08-22T16:44:13.759Z,8.07
2017-08-22T16:46:40.284Z,6.83
2017-08-22T16:49:06.760Z,11.83
2017-08-22T16:51:33.209Z,4.73
2017-08-22T16:53:59.669Z,3.90
2017-08-22T16:56:26.121Z,5.33
2017-08-22T16:58:52.581Z,7.53
2017-08-22T17:01:19.023Z,11.23
2017-08-22T17:03:45.495Z,3.90
2017-08-22T17:06:12.012Z,3.13
2017-08-22T17:08:38.592Z,6.40
2017-08-22T17:11:05.034Z,5.40
2017-08-22T17:13:31.549Z,6.00
2017-08-22T17:15:58.035Z,5.00
2017-08-22T17:18:24.525Z,7.27
2017-08-22T17:20:50.987Z,10.30
2017-08-22T17:23:17.436Z,6.80
2017-08-22T17:25:43.941Z,3.93
2017-08-22T17:28:10.419Z,4.57
2017-08-22T17:30:36.880Z,4.50
2017-08-22T17:33:03.317Z,4.90
2017-08-22T17:35:29.750Z,6.00
2017-08-22T17:37:56.207Z,3.17
2017-08-22T17:40:22.767Z,5.60
2017-08-22T17:42:49.223Z,6.20
2017-08-22T17:45:15.673Z,6.47
2017-08-22T17:47:42.873Z,5.50
2017-08-22T17:50:09.317Z,6.07
2017-08-22T17:52:35.796Z,7.40
2017-08-22T17:55:02.248Z,4.97
2017-08-22T17:57:28.699Z,6.03
2017-08-22T17:59:55.148Z,5.47
2017-08-22T18:02:21.631Z,8.00
2017-08-22T18:04:48.485Z,7.50
2017-08-22T18:07:14.932Z,7.27
2017-08-22T18:09:41.410Z,8.43
2017-08-22T18:12:07.868Z,9.87
2017-08-22T18:14:34.305Z,5.73
2017-08-22T18:17:00.772Z,9.57
2017-08-22T18:19:27.235Z,8.50
2017-08-22T18:21:53.811Z,10.17
2017-08-22T18:24:20.261Z,11.10
2017-08-22T18:26:46.797Z,9.30
2017-08-22T18:29:13.267Z,7.60
2017-08-22T18:31:39.704Z,12.97
2017-08-22T18:34:06.156Z,20.23
2017-08-22T18:36:32.794Z,11.33
2017-08-22T18:39:00.024Z,16.20
2017-08-22T18:41:26.476Z,24.87
2017-08-22T18:43:52.920Z,10.37
2017-08-22T18:46:19.369Z,10.60
2017-08-22T18:48:45.822Z,23.93
2017-08-22T18:51:12.285Z,10.47
2017-08-22T18:53:38.720Z,17.73
2017-08-22T18:56:05.199Z,10.30
2017-08-22T18:58:31.667Z,16.17
2017-08-22T19:00:58.140Z,13.70
2017-08-22T19:03:24.649Z,8.17
2017-08-22T19:05:51.186Z,6.50
2017-08-22T19:08:17.650Z,9.27
2017-08-22T19:10:44.117Z,4.77
2017-08-22T19:13:10.621Z,10.67
2017-08-22T19:15:37.130Z,11.77
2017-08-22T19:18:03.625Z,9.00
2017-08-22T19:20:30.098Z,3.40
2017-08-22T19:22:56.594Z,4.43
2017-08-22T19:25:23.081Z,4.27
2017-08-22T19:27:49.595Z,4.73
2017-08-22T19:30:16.133Z,3.93
2017-08-22T19:32:43.009Z,8.50
2017-08-22T19:35:09.490Z,10.93
2017-08-22T19:37:36.448Z,9.30
2017-08-22T19:40:03.021Z,6.00
2017-08-22T19:42:29.508Z,9.80
2017-08-22T19:44:55.985Z,7.47
2017-08-22T19:47:22.459Z,9.80
2017-08-22T19:49:48.979Z,12.07
2017-08-22T19:52:15.473Z,19.10
2017-08-22T19:54:41.927Z,13.93
2017-08-22T19:57:08.383Z,12.80
2017-08-22T19:59:34.869Z,7.27
2017-08-22T20:02:01.317Z,9.40
2017-08-22T20:04:27.794Z,8.13
2017-08-22T20:06:54.259Z,11.00
2017-08-22T20:09:20.733Z,8.73
2017-08-22T20:11:47.190Z,7.70
2017-08-22T20:14:14.397Z,6.40
2017-08-22T20:16:40.901Z,6.40
2017-08-22T20:19:07.358Z,10.73
2017-08-22T20:21:33.833Z,14.30
2017-08-22T20:24:00.308Z,4.80
2017-08-22T20:26:26.782Z,8.77
2017-08-22T20:28:53.226Z,6.80
2017-08-22T20:31:19.680Z,10.20
2017-08-22T20:33:46.144Z,8.63
2017-08-22T20:36:12.602Z,8.50
2017-08-22T20:38:39.153Z,10.97
2017-08-22T20:41:05.623Z,11.80
2017-08-22T20:43:32.050Z,5.67
2017-08-22T20:45:58.514Z,10.10
2017-08-22T20:48:25.099Z,9.13
2017-08-22T20:50:51.557Z,7.20
2017-08-22T20:53:18.029Z,10.90
2017-08-22T20:55:44.483Z,7.63
2017-08-22T20:58:10.981Z,5.70
2017-08-22T21:00:37.442Z,7.37
2017-08-22T21:03:03.948Z,8.33
2017-08-22T21:05:30.422Z,9.50
2017-08-22T21:07:56.884Z,9.17
2017-08-22T21:10:23.358Z,8.43
2017-08-22T21:12:49.839Z,9.10
2017-08-22T21:15:16.283Z,6.50
2017-08-22T21:17:42.751Z,6.17
2017-08-22T21:20:09.250Z,5.83
2017-08-22T21:22:35.715Z,13.90
2017-08-22T21:25:02.181Z,9.90
2017-08-22T21:27:29.270Z,5.67
2017-08-22T21:29:55.715Z,5.93
2017-08-22T21:32:22.142Z,10.30
2017-08-22T21:34:48.592Z,10.13
2017-08-22T21:37:15.138Z,10.10
2017-08-22T21:39:41.590Z,14.60
2017-08-22T21:42:08.052Z,12.43
2017-08-22T21:44:34.510Z,10.50
2017-08-22T21:47:00.990Z,10.43
2017-08-22T21:49:27.503Z,8.00
2017-08-22T21:51:53.976Z,8.83
2017-08-22T21:54:20.535Z,9.77
2017-08-22T21:56:46.988Z,11.60
2017-08-22T21:59:13.439Z,10.83
2017-08-22T22:01:39.883Z,8.43
2017-08-22T22:04:06.339Z,13.00
2017-08-22T22:06:32.832Z,7.47
2017-08-22T22:08:59.284Z,9.43
2017-08-22T22:11:25.784Z,8.07
2017-08-22T22:13:52.258Z,8.37
2017-08-22T22:16:18.718Z,8.87
2017-08-22T22:18:45.151Z,8.77
2017-08-22T22:21:11.584Z,6.80
2017-08-22T22:23:38.044Z,10.13
2017-08-22T22:26:04.508Z,11.73
2017-08-22T22:28:30.943Z,8.17
2017-08-22T22:30:57.392Z,6.33
2017-08-22T22:33:23.870Z,13.40
2017-08-22T22:35:50.343Z,10.40
2017-08-22T22:38:16.785Z,9.07
2017-08-22T22:40:43.263Z,12.23
2017-08-22T22:43:09.717Z,8.23
2017-08-22T22:45:36.212Z,8.13
2017-08-22T22:48:02.656Z,10.33
2017-08-22T22:50:29.221Z,9.27
2017-08-22T22:52:55.691Z,13.57
2017-08-22T22:55:22.174Z,9.10
2017-08-22T22:57:48.673Z,7.20
2017-08-22T23:00:15.118Z,9.83
2017-08-22T23:02:41.601Z,11.70
2017-08-22T23:05:08.092Z,6.73
2017-08-22T23:07:34.573Z,11.30
2017-08-22T23:10:01.030Z,8.57
2017-08-22T23:12:27.508Z,9.33
2017-08-22T23:14:53.947Z,10.43
2017-08-22T23:17:20.380Z,9.00
2017-08-22T23:19:46.860Z,12.47
2017-08-22T23:22:13.294Z,12.13
2017-08-22T23:24:39.776Z,8.83
2017-08-22T23:27:06.209Z,8.07
2017-08-22T23:29:32.635Z,7.83
2017-08-22T23:31:59.093Z,9.00
2017-08-22T23:34:25.556Z,11.73
2017-08-22T23:36:52.003Z,8.03
2017-08-22T23:39:18.450Z,9.43
2017-08-22T23:41:44.883Z,8.67
2017-08-22T23:44:11.345Z,9.30
2017-08-22T23:46:37.818Z,8.73
2017-08-22T23:49:04.251Z,8.50
2017-08-22T23:51:30.701Z,10.03
2017-08-22T23:53:57.179Z,7.70
2017-08-22T23:56:23.709Z,10.20
2017-08-22T23:58:50.141Z,11.13
